sensor_id;sensor_type;location;lat;lon;timestamp;P1;durP1;ratioP1;P2;durP2;ratioP2
72611;SDS011;60655;52.182;4.474;2024-02-16T00:01:07;6.93;;;2.53;;
72611;SDS011;60655;52.182;4.474;2024-02-16T00:03:08;7.78;;;2.22;;
72611;SDS011;60655;52.182;4.474;2024-02-16T00:05:09;5.93;;;2.38;;
72611;SDS011;60655;52.182;4.474;2024-02-16T00:07:12;7.05;;;2.70;;
72611;SDS011;60655;52.182;4.474;2024-02-16T00:09:13;6.00;;;2.28;;
72611;SDS011;60655;52.182;4.474;2024-02-16T00:11:13;5.70;;;2.25;;
72611;SDS011;60655;52.182;4.474;2024-02-16T00:13:14;6.43;;;2.40;;
72611;SDS011;60655;52.182;4.474;2024-02-16T00:15:15;9.38;;;2.40;;
72611;SDS011;60655;52.182;4.474;2024-02-16T00:17:16;6.38;;;2.50;;
72611;SDS011;60655;52.182;4.474;2024-02-16T00:19:17;8.63;;;2.70;;
72611;SDS011;60655;52.182;4.474;2024-02-16T00:21:18;6.60;;;2.40;;
72611;SDS011;60655;52.182;4.474;2024-02-16T00:23:19;6.72;;;2.50;;
72611;SDS011;60655;52.182;4.474;2024-02-16T00:25:23;6.22;;;2.60;;
72611;SDS011;60655;52.182;4.474;2024-02-16T00:27:24;6.13;;;2.47;;
72611;SDS011;60655;52.182;4.474;2024-02-16T00:29:25;7.13;;;2.58;;
72611;SDS011;60655;52.182;4.474;2024-02-16T00:31:26;5.97;;;2.20;;
72611;SDS011;60655;52.182;4.474;2024-02-16T00:33:27;7.47;;;2.85;;
72611;SDS011;60655;52.182;4.474;2024-02-16T00:35:29;8.68;;;2.55;;
72611;SDS011;60655;52.182;4.474;2024-02-16T00:37:33;10.23;;;2.67;;
72611;SDS011;60655;52.182;4.474;2024-02-16T00:39:38;7.75;;;2.63;;
72611;SDS011;60655;52.182;4.474;2024-02-16T00:41:42;6.80;;;2.47;;
72611;SDS011;60655;52.182;4.474;2024-02-16T00:43:42;7.80;;;2.45;;
72611;SDS011;60655;52.182;4.474;2024-02-16T00:45:45;7.05;;;2.65;;
72611;SDS011;60655;52.182;4.474;2024-02-16T00:47:46;7.60;;;2.30;;
72611;SDS011;60655;52.182;4.474;2024-02-16T00:49:49;6.55;;;2.38;;
72611;SDS011;60655;52.182;4.474;2024-02-16T00:51:50;7.00;;;2.90;;
72611;SDS011;60655;52.182;4.474;2024-02-16T00:53:51;6.90;;;2.38;;
72611;SDS011;60655;52.182;4.474;2024-02-16T00:55:53;7.03;;;2.55;;
72611;SDS011;60655;52.182;4.474;2024-02-16T00:57:54;6.68;;;2.80;;
72611;SDS011;60655;52.182;4.474;2024-02-16T00:59:55;9.85;;;2.92;;
72611;SDS011;60655;52.182;4.474;2024-02-16T01:01:56;6.38;;;2.53;;
72611;SDS011;60655;52.182;4.474;2024-02-16T01:03:57;7.70;;;2.80;;
72611;SDS011;60655;52.182;4.474;2024-02-16T01:05:58;8.05;;;2.50;;
72611;SDS011;60655;52.182;4.474;2024-02-16T01:07:59;9.75;;;2.58;;
72611;SDS011;60655;52.182;4.474;2024-02-16T01:10:00;8.05;;;2.70;;
72611;SDS011;60655;52.182;4.474;2024-02-16T01:12:01;7.25;;;2.53;;
72611;SDS011;60655;52.182;4.474;2024-02-16T01:14:02;8.70;;;2.55;;
72611;SDS011;60655;52.182;4.474;2024-02-16T01:16:03;7.63;;;2.70;;
72611;SDS011;60655;52.182;4.474;2024-02-16T01:18:04;7.18;;;2.63;;
72611;SDS011;60655;52.182;4.474;2024-02-16T01:20:06;6.18;;;2.42;;
72611;SDS011;60655;52.182;4.474;2024-02-16T01:22:11;6.95;;;2.58;;
72611;SDS011;60655;52.182;4.474;2024-02-16T01:24:12;7.72;;;3.10;;
72611;SDS011;60655;52.182;4.474;2024-02-16T01:26:13;8.77;;;2.50;;
72611;SDS011;60655;52.182;4.474;2024-02-16T01:28:14;7.80;;;2.58;;
72611;SDS011;60655;52.182;4.474;2024-02-16T01:30:15;5.60;;;2.40;;
72611;SDS011;60655;52.182;4.474;2024-02-16T01:32:16;7.40;;;2.63;;
72611;SDS011;60655;52.182;4.474;2024-02-16T01:34:17;8.30;;;2.90;;
72611;SDS011;60655;52.182;4.474;2024-02-16T01:36:18;8.02;;;2.65;;
72611;SDS011;60655;52.182;4.474;2024-02-16T01:38:19;6.40;;;2.28;;
72611;SDS011;60655;52.182;4.474;2024-02-16T01:40:23;6.05;;;2.65;;
72611;SDS011;60655;52.182;4.474;2024-02-16T01:42:26;6.20;;;2.50;;
72611;SDS011;60655;52.182;4.474;2024-02-16T01:44:27;8.82;;;2.72;;
72611;SDS011;60655;52.182;4.474;2024-02-16T01:46:28;8.50;;;2.97;;
72611;SDS011;60655;52.182;4.474;2024-02-16T01:48:29;6.60;;;2.97;;
72611;SDS011;60655;52.182;4.474;2024-02-16T01:50:30;7.00;;;2.92;;
72611;SDS011;60655;52.182;4.474;2024-02-16T01:52:33;9.48;;;3.05;;
72611;SDS011;60655;52.182;4.474;2024-02-16T01:54:37;9.32;;;2.70;;
72611;SDS011;60655;52.182;4.474;2024-02-16T01:56:38;9.73;;;3.00;;
72611;SDS011;60655;52.182;4.474;2024-02-16T01:58:40;7.30;;;2.60;;
72611;SDS011;60655;52.182;4.474;2024-02-16T02:00:41;6.85;;;2.58;;
72611;SDS011;60655;52.182;4.474;2024-02-16T02:02:44;9.00;;;2.83;;
72611;SDS011;60655;52.182;4.474;2024-02-16T02:04:46;8.07;;;3.55;;
72611;SDS011;60655;52.182;4.474;2024-02-16T02:06:47;6.75;;;2.50;;
72611;SDS011;60655;52.182;4.474;2024-02-16T02:08:48;9.70;;;3.22;;
72611;SDS011;60655;52.182;4.474;2024-02-16T02:10:50;8.07;;;2.95;;
72611;SDS011;60655;52.182;4.474;2024-02-16T02:12:51;7.28;;;2.30;;
72611;SDS011;60655;52.182;4.474;2024-02-16T02:14:52;6.72;;;2.50;;
72611;SDS011;60655;52.182;4.474;2024-02-16T02:16:52;8.75;;;3.08;;
72611;SDS011;60655;52.182;4.474;2024-02-16T02:18:53;9.85;;;2.70;;
72611;SDS011;60655;52.182;4.474;2024-02-16T02:20:54;5.78;;;2.47;;
72611;SDS011;60655;52.182;4.474;2024-02-16T02:22:55;8.52;;;2.95;;
72611;SDS011;60655;52.182;4.474;2024-02-16T02:24:56;7.82;;;2.83;;
72611;SDS011;60655;52.182;4.474;2024-02-16T02:26:57;6.60;;;3.03;;
72611;SDS011;60655;52.182;4.474;2024-02-16T02:28:58;8.02;;;2.78;;
72611;SDS011;60655;52.182;4.474;2024-02-16T02:30:59;7.75;;;2.78;;
72611;SDS011;60655;52.182;4.474;2024-02-16T02:33:00;7.32;;;2.67;;
72611;SDS011;60655;52.182;4.474;2024-02-16T02:35:01;8.05;;;2.67;;
72611;SDS011;60655;52.182;4.474;2024-02-16T02:37:04;8.98;;;2.63;;
72611;SDS011;60655;52.182;4.474;2024-02-16T02:39:06;7.05;;;2.75;;
72611;SDS011;60655;52.182;4.474;2024-02-16T02:41:07;6.60;;;2.60;;
72611;SDS011;60655;52.182;4.474;2024-02-16T02:43:08;6.63;;;2.95;;
72611;SDS011;60655;52.182;4.474;2024-02-16T02:45:09;9.23;;;2.33;;
72611;SDS011;60655;52.182;4.474;2024-02-16T02:47:10;9.23;;;2.85;;
72611;SDS011;60655;52.182;4.474;2024-02-16T02:49:11;7.95;;;2.80;;
72611;SDS011;60655;52.182;4.474;2024-02-16T02:51:12;8.13;;;2.78;;
72611;SDS011;60655;52.182;4.474;2024-02-16T02:53:13;7.32;;;3.28;;
72611;SDS011;60655;52.182;4.474;2024-02-16T02:55:14;6.75;;;2.70;;
72611;SDS011;60655;52.182;4.474;2024-02-16T02:57:15;6.75;;;2.70;;
72611;SDS011;60655;52.182;4.474;2024-02-16T02:59:15;5.60;;;2.63;;
72611;SDS011;60655;52.182;4.474;2024-02-16T03:01:17;7.32;;;2.80;;
72611;SDS011;60655;52.182;4.474;2024-02-16T03:03:21;9.65;;;3.03;;
72611;SDS011;60655;52.182;4.474;2024-02-16T03:05:23;8.77;;;2.97;;
72611;SDS011;60655;52.182;4.474;2024-02-16T03:07:24;6.20;;;2.88;;
72611;SDS011;60655;52.182;4.474;2024-02-16T03:09:25;7.35;;;2.75;;
72611;SDS011;60655;52.182;4.474;2024-02-16T03:11:26;7.93;;;3.20;;
72611;SDS011;60655;52.182;4.474;2024-02-16T03:13:27;9.43;;;3.20;;
72611;SDS011;60655;52.182;4.474;2024-02-16T03:15:28;6.28;;;2.90;;
72611;SDS011;60655;52.182;4.474;2024-02-16T03:17:30;6.32;;;3.05;;
72611;SDS011;60655;52.182;4.474;2024-02-16T03:19:31;10.18;;;2.92;;
72611;SDS011;60655;52.182;4.474;2024-02-16T03:21:32;8.82;;;3.03;;
72611;SDS011;60655;52.182;4.474;2024-02-16T03:23:33;8.98;;;3.05;;
72611;SDS011;60655;52.182;4.474;2024-02-16T03:25:34;8.40;;;3.20;;
72611;SDS011;60655;52.182;4.474;2024-02-16T03:27:35;8.23;;;2.75;;
72611;SDS011;60655;52.182;4.474;2024-02-16T03:29:36;6.57;;;2.92;;
72611;SDS011;60655;52.182;4.474;2024-02-16T03:31:36;8.32;;;2.88;;
72611;SDS011;60655;52.182;4.474;2024-02-16T03:33:37;7.22;;;2.97;;
72611;SDS011;60655;52.182;4.474;2024-02-16T03:35:38;7.13;;;3.00;;
72611;SDS011;60655;52.182;4.474;2024-02-16T03:37:40;8.02;;;2.40;;
72611;SDS011;60655;52.182;4.474;2024-02-16T03:39:42;8.20;;;3.20;;
72611;SDS011;60655;52.182;4.474;2024-02-16T03:41:43;9.95;;;3.13;;
72611;SDS011;60655;52.182;4.474;2024-02-16T03:43:48;8.85;;;3.10;;
72611;SDS011;60655;52.182;4.474;2024-02-16T03:45:49;6.15;;;2.33;;
72611;SDS011;60655;52.182;4.474;2024-02-16T03:47:50;8.80;;;3.10;;
72611;SDS011;60655;52.182;4.474;2024-02-16T03:49:53;7.22;;;2.80;;
72611;SDS011;60655;52.182;4.474;2024-02-16T03:51:54;8.52;;;2.70;;
72611;SDS011;60655;52.182;4.474;2024-02-16T03:53:55;6.15;;;2.53;;
72611;SDS011;60655;52.182;4.474;2024-02-16T03:55:56;7.85;;;3.00;;
72611;SDS011;60655;52.182;4.474;2024-02-16T03:57:56;10.30;;;3.63;;
72611;SDS011;60655;52.182;4.474;2024-02-16T03:59:58;14.57;;;3.25;;
72611;SDS011;60655;52.182;4.474;2024-02-16T04:01:59;10.23;;;3.20;;
72611;SDS011;60655;52.182;4.474;2024-02-16T04:04:00;6.80;;;2.97;;
72611;SDS011;60655;52.182;4.474;2024-02-16T04:06:03;9.95;;;3.00;;
72611;SDS011;60655;52.182;4.474;2024-02-16T04:08:05;8.32;;;3.20;;
72611;SDS011;60655;52.182;4.474;2024-02-16T04:10:07;8.05;;;3.03;;
72611;SDS011;60655;52.182;4.474;2024-02-16T04:12:08;7.22;;;2.92;;
72611;SDS011;60655;52.182;4.474;2024-02-16T04:14:10;6.75;;;3.10;;
72611;SDS011;60655;52.182;4.474;2024-02-16T04:16:11;6.57;;;2.78;;
72611;SDS011;60655;52.182;4.474;2024-02-16T04:18:12;9.77;;;3.00;;
72611;SDS011;60655;52.182;4.474;2024-02-16T04:20:14;7.93;;;3.22;;
72611;SDS011;60655;52.182;4.474;2024-02-16T04:22:16;7.57;;;3.10;;
72611;SDS011;60655;52.182;4.474;2024-02-16T04:24:17;9.77;;;3.55;;
72611;SDS011;60655;52.182;4.474;2024-02-16T04:26:18;7.53;;;2.75;;
72611;SDS011;60655;52.182;4.474;2024-02-16T04:28:19;6.80;;;3.08;;
72611;SDS011;60655;52.182;4.474;2024-02-16T04:30:20;8.18;;;3.13;;
72611;SDS011;60655;52.182;4.474;2024-02-16T04:32:21;7.90;;;3.20;;
72611;SDS011;60655;52.182;4.474;2024-02-16T04:34:22;9.27;;;3.00;;
72611;SDS011;60655;52.182;4.474;2024-02-16T04:36:23;9.07;;;2.83;;
72611;SDS011;60655;52.182;4.474;2024-02-16T04:38:24;10.27;;;3.38;;
72611;SDS011;60655;52.182;4.474;2024-02-16T04:40:25;8.45;;;3.13;;
72611;SDS011;60655;52.182;4.474;2024-02-16T04:42:27;7.00;;;2.90;;
72611;SDS011;60655;52.182;4.474;2024-02-16T04:44:28;7.63;;;2.90;;
72611;SDS011;60655;52.182;4.474;2024-02-16T04:46:29;9.52;;;3.22;;
72611;SDS011;60655;52.182;4.474;2024-02-16T04:48:29;7.05;;;3.00;;
72611;SDS011;60655;52.182;4.474;2024-02-16T04:50:32;9.32;;;3.40;;
72611;SDS011;60655;52.182;4.474;2024-02-16T04:52:33;8.48;;;3.38;;
72611;SDS011;60655;52.182;4.474;2024-02-16T04:54:34;7.60;;;3.10;;
72611;SDS011;60655;52.182;4.474;2024-02-16T04:56:36;9.65;;;3.15;;
72611;SDS011;60655;52.182;4.474;2024-02-16T04:58:41;8.95;;;2.80;;
72611;SDS011;60655;52.182;4.474;2024-02-16T05:00:42;8.45;;;3.42;;
72611;SDS011;60655;52.182;4.474;2024-02-16T05:02:43;7.50;;;3.13;;
72611;SDS011;60655;52.182;4.474;2024-02-16T05:04:44;10.68;;;3.33;;
72611;SDS011;60655;52.182;4.474;2024-02-16T05:06:45;7.85;;;3.05;;
72611;SDS011;60655;52.182;4.474;2024-02-16T05:08:47;7.20;;;3.03;;
72611;SDS011;60655;52.182;4.474;2024-02-16T05:10:47;7.90;;;3.03;;
72611;SDS011;60655;52.182;4.474;2024-02-16T05:12:48;8.80;;;3.08;;
72611;SDS011;60655;52.182;4.474;2024-02-16T05:14:50;7.57;;;3.22;;
72611;SDS011;60655;52.182;4.474;2024-02-16T05:16:51;8.25;;;2.92;;
72611;SDS011;60655;52.182;4.474;2024-02-16T05:18:52;8.23;;;3.30;;
72611;SDS011;60655;52.182;4.474;2024-02-16T05:20:53;7.85;;;3.05;;
72611;SDS011;60655;52.182;4.474;2024-02-16T05:22:54;13.35;;;3.28;;
72611;SDS011;60655;52.182;4.474;2024-02-16T05:24:55;8.13;;;3.40;;
72611;SDS011;60655;52.182;4.474;2024-02-16T05:26:56;9.93;;;2.65;;
72611;SDS011;60655;52.182;4.474;2024-02-16T05:28:57;8.43;;;3.28;;
72611;SDS011;60655;52.182;4.474;2024-02-16T05:30:58;7.60;;;3.15;;
72611;SDS011;60655;52.182;4.474;2024-02-16T05:33:13;7.38;;;3.33;;
72611;SDS011;60655;52.182;4.474;2024-02-16T05:35:14;10.98;;;3.50;;
72611;SDS011;60655;52.182;4.474;2024-02-16T05:37:16;7.65;;;3.17;;
72611;SDS011;60655;52.182;4.474;2024-02-16T05:39:18;10.40;;;3.53;;
72611;SDS011;60655;52.182;4.474;2024-02-16T05:41:27;7.78;;;3.42;;
72611;SDS011;60655;52.182;4.474;2024-02-16T05:43:28;9.65;;;3.38;;
72611;SDS011;60655;52.182;4.474;2024-02-16T05:45:29;8.20;;;3.42;;
72611;SDS011;60655;52.182;4.474;2024-02-16T05:47:29;9.25;;;3.55;;
72611;SDS011;60655;52.182;4.474;2024-02-16T05:49:30;8.70;;;3.60;;
72611;SDS011;60655;52.182;4.474;2024-02-16T05:51:35;11.55;;;3.60;;
72611;SDS011;60655;52.182;4.474;2024-02-16T05:53:36;8.65;;;3.50;;
72611;SDS011;60655;52.182;4.474;2024-02-16T05:55:37;10.80;;;3.92;;
72611;SDS011;60655;52.182;4.474;2024-02-16T05:57:38;9.15;;;3.70;;
72611;SDS011;60655;52.182;4.474;2024-02-16T05:59:40;9.35;;;3.55;;
72611;SDS011;60655;52.182;4.474;2024-02-16T06:01:42;10.80;;;4.20;;
72611;SDS011;60655;52.182;4.474;2024-02-16T06:03:43;7.80;;;3.72;;
72611;SDS011;60655;52.182;4.474;2024-02-16T06:05:44;9.13;;;3.83;;
72611;SDS011;60655;52.182;4.474;2024-02-16T06:07:45;11.20;;;3.65;;
72611;SDS011;60655;52.182;4.474;2024-02-16T06:09:46;11.27;;;3.80;;
72611;SDS011;60655;52.182;4.474;2024-02-16T06:11:47;11.95;;;3.90;;
72611;SDS011;60655;52.182;4.474;2024-02-16T06:13:49;9.23;;;3.63;;
72611;SDS011;60655;52.182;4.474;2024-02-16T06:15:50;9.38;;;3.63;;
72611;SDS011;60655;52.182;4.474;2024-02-16T06:17:51;9.90;;;3.97;;
72611;SDS011;60655;52.182;4.474;2024-02-16T06:19:52;8.63;;;3.70;;
72611;SDS011;60655;52.182;4.474;2024-02-16T06:21:53;10.52;;;3.72;;
72611;SDS011;60655;52.182;4.474;2024-02-16T06:23:58;8.18;;;3.53;;
72611;SDS011;60655;52.182;4.474;2024-02-16T06:25:59;11.30;;;4.13;;
72611;SDS011;60655;52.182;4.474;2024-02-16T06:28:00;10.73;;;3.63;;
72611;SDS011;60655;52.182;4.474;2024-02-16T06:30:01;10.60;;;3.88;;
72611;SDS011;60655;52.182;4.474;2024-02-16T06:32:05;9.35;;;3.92;;
72611;SDS011;60655;52.182;4.474;2024-02-16T06:34:07;9.45;;;3.85;;
72611;SDS011;60655;52.182;4.474;2024-02-16T06:36:08;9.60;;;3.80;;
72611;SDS011;60655;52.182;4.474;2024-02-16T06:38:10;10.70;;;3.80;;
72611;SDS011;60655;52.182;4.474;2024-02-16T06:40:11;8.30;;;3.55;;
72611;SDS011;60655;52.182;4.474;2024-02-16T06:42:12;11.07;;;3.95;;
72611;SDS011;60655;52.182;4.474;2024-02-16T06:44:13;8.18;;;3.70;;
72611;SDS011;60655;52.182;4.474;2024-02-16T06:46:14;11.98;;;3.65;;
72611;SDS011;60655;52.182;4.474;2024-02-16T06:48:15;9.85;;;3.53;;
72611;SDS011;60655;52.182;4.474;2024-02-16T06:50:16;8.88;;;3.85;;
72611;SDS011;60655;52.182;4.474;2024-02-16T06:52:17;8.20;;;3.35;;
72611;SDS011;60655;52.182;4.474;2024-02-16T06:54:19;12.82;;;3.42;;
72611;SDS011;60655;52.182;4.474;2024-02-16T06:56:20;9.43;;;3.80;;
72611;SDS011;60655;52.182;4.474;2024-02-16T06:58:21;8.93;;;3.63;;
72611;SDS011;60655;52.182;4.474;2024-02-16T07:00:22;11.02;;;3.85;;
72611;SDS011;60655;52.182;4.474;2024-02-16T07:02:23;9.52;;;3.95;;
72611;SDS011;60655;52.182;4.474;2024-02-16T07:04:24;10.52;;;3.78;;
72611;SDS011;60655;52.182;4.474;2024-02-16T07:06:25;9.50;;;3.67;;
72611;SDS011;60655;52.182;4.474;2024-02-16T07:08:26;8.50;;;3.70;;
72611;SDS011;60655;52.182;4.474;2024-02-16T07:10:27;7.80;;;3.08;;
72611;SDS011;60655;52.182;4.474;2024-02-16T07:12:28;9.43;;;3.70;;
72611;SDS011;60655;52.182;4.474;2024-02-16T07:14:29;8.25;;;3.75;;
72611;SDS011;60655;52.182;4.474;2024-02-16T07:16:30;8.52;;;3.20;;
72611;SDS011;60655;52.182;4.474;2024-02-16T07:18:33;8.77;;;3.60;;
72611;SDS011;60655;52.182;4.474;2024-02-16T07:20:34;10.18;;;3.60;;
72611;SDS011;60655;52.182;4.474;2024-02-16T07:22:35;13.90;;;3.90;;
72611;SDS011;60655;52.182;4.474;2024-02-16T07:24:35;10.30;;;3.30;;
72611;SDS011;60655;52.182;4.474;2024-02-16T07:26:36;10.43;;;3.75;;
72611;SDS011;60655;52.182;4.474;2024-02-16T07:28:37;10.93;;;3.97;;
72611;SDS011;60655;52.182;4.474;2024-02-16T07:30:38;8.88;;;3.78;;
72611;SDS011;60655;52.182;4.474;2024-02-16T07:32:39;7.35;;;3.40;;
72611;SDS011;60655;52.182;4.474;2024-02-16T07:34:40;9.35;;;3.60;;
72611;SDS011;60655;52.182;4.474;2024-02-16T07:36:41;11.30;;;3.55;;
72611;SDS011;60655;52.182;4.474;2024-02-16T07:38:42;10.27;;;3.65;;
72611;SDS011;60655;52.182;4.474;2024-02-16T07:40:43;9.90;;;3.67;;
72611;SDS011;60655;52.182;4.474;2024-02-16T07:42:46;11.68;;;3.80;;
72611;SDS011;60655;52.182;4.474;2024-02-16T07:44:47;7.10;;;3.58;;
72611;SDS011;60655;52.182;4.474;2024-02-16T07:46:48;9.13;;;3.90;;
72611;SDS011;60655;52.182;4.474;2024-02-16T07:48:51;10.65;;;3.42;;
72611;SDS011;60655;52.182;4.474;2024-02-16T07:50:52;7.60;;;3.92;;
72611;SDS011;60655;52.182;4.474;2024-02-16T07:52:52;9.57;;;3.53;;
72611;SDS011;60655;52.182;4.474;2024-02-16T07:54:54;11.73;;;3.88;;
72611;SDS011;60655;52.182;4.474;2024-02-16T07:56:55;8.80;;;3.80;;
72611;SDS011;60655;52.182;4.474;2024-02-16T07:58:56;9.68;;;3.75;;
72611;SDS011;60655;52.182;4.474;2024-02-16T08:00:57;7.72;;;3.53;;
72611;SDS011;60655;52.182;4.474;2024-02-16T08:02:58;12.68;;;4.18;;
72611;SDS011;60655;52.182;4.474;2024-02-16T08:04:59;9.07;;;3.65;;
72611;SDS011;60655;52.182;4.474;2024-02-16T08:07:00;12.40;;;4.20;;
72611;SDS011;60655;52.182;4.474;2024-02-16T08:09:02;11.48;;;4.15;;
72611;SDS011;60655;52.182;4.474;2024-02-16T08:11:04;8.68;;;3.83;;
72611;SDS011;60655;52.182;4.474;2024-02-16T08:13:05;9.27;;;3.95;;
72611;SDS011;60655;52.182;4.474;2024-02-16T08:15:07;11.52;;;3.80;;
72611;SDS011;60655;52.182;4.474;2024-02-16T08:17:08;10.10;;;4.30;;
72611;SDS011;60655;52.182;4.474;2024-02-16T08:19:10;13.63;;;3.78;;
72611;SDS011;60655;52.182;4.474;2024-02-16T08:21:11;7.85;;;3.65;;
72611;SDS011;60655;52.182;4.474;2024-02-16T08:23:12;8.65;;;3.53;;
72611;SDS011;60655;52.182;4.474;2024-02-16T08:25:13;12.35;;;4.10;;
72611;SDS011;60655;52.182;4.474;2024-02-16T08:27:14;8.98;;;3.97;;
72611;SDS011;60655;52.182;4.474;2024-02-16T08:29:15;9.43;;;3.53;;
72611;SDS011;60655;52.182;4.474;2024-02-16T08:31:17;10.52;;;4.00;;
72611;SDS011;60655;52.182;4.474;2024-02-16T08:33:18;11.95;;;3.60;;
72611;SDS011;60655;52.182;4.474;2024-02-16T08:35:19;11.68;;;3.88;;
72611;SDS011;60655;52.182;4.474;2024-02-16T08:37:20;9.40;;;3.67;;
72611;SDS011;60655;52.182;4.474;2024-02-16T08:39:21;13.30;;;3.90;;
72611;SDS011;60655;52.182;4.474;2024-02-16T08:41:25;9.82;;;4.07;;
72611;SDS011;60655;52.182;4.474;2024-02-16T08:43:26;13.65;;;4.00;;
72611;SDS011;60655;52.182;4.474;2024-02-16T08:45:27;11.15;;;4.13;;
72611;SDS011;60655;52.182;4.474;2024-02-16T08:47:28;8.40;;;4.00;;
72611;SDS011;60655;52.182;4.474;2024-02-16T08:49:29;9.18;;;4.07;;
72611;SDS011;60655;52.182;4.474;2024-02-16T08:51:31;8.45;;;3.78;;
72611;SDS011;60655;52.182;4.474;2024-02-16T08:53:32;16.20;;;5.10;;
72611;SDS011;60655;52.182;4.474;2024-02-16T08:55:33;10.00;;;4.20;;
72611;SDS011;60655;52.182;4.474;2024-02-16T08:57:34;11.35;;;4.82;;
72611;SDS011;60655;52.182;4.474;2024-02-16T08:59:35;12.38;;;4.70;;
72611;SDS011;60655;52.182;4.474;2024-02-16T09:01:36;16.00;;;5.30;;
72611;SDS011;60655;52.182;4.474;2024-02-16T09:03:39;19.17;;;5.47;;
72611;SDS011;60655;52.182;4.474;2024-02-16T09:05:41;15.43;;;4.88;;
72611;SDS011;60655;52.182;4.474;2024-02-16T09:07:44;16.77;;;6.03;;
72611;SDS011;60655;52.182;4.474;2024-02-16T09:09:45;17.80;;;6.45;;
72611;SDS011;60655;52.182;4.474;2024-02-16T09:11:46;14.95;;;5.47;;
72611;SDS011;60655;52.182;4.474;2024-02-16T09:13:47;20.38;;;6.65;;
72611;SDS011;60655;52.182;4.474;2024-02-16T09:15:48;23.38;;;6.10;;
72611;SDS011;60655;52.182;4.474;2024-02-16T09:17:52;20.58;;;6.97;;
72611;SDS011;60655;52.182;4.474;2024-02-16T09:19:53;25.05;;;6.82;;
72611;SDS011;60655;52.182;4.474;2024-02-16T09:21:54;22.10;;;7.45;;
72611;SDS011;60655;52.182;4.474;2024-02-16T09:23:55;39.80;;;8.18;;
72611;SDS011;60655;52.182;4.474;2024-02-16T09:26:01;29.30;;;8.30;;
72611;SDS011;60655;52.182;4.474;2024-02-16T09:28:03;32.22;;;8.10;;
72611;SDS011;60655;52.182;4.474;2024-02-16T09:30:04;31.42;;;7.90;;
72611;SDS011;60655;52.182;4.474;2024-02-16T09:32:05;27.77;;;7.63;;
72611;SDS011;60655;52.182;4.474;2024-02-16T09:34:07;26.77;;;7.43;;
72611;SDS011;60655;52.182;4.474;2024-02-16T09:36:08;34.42;;;8.23;;
72611;SDS011;60655;52.182;4.474;2024-02-16T09:38:10;31.05;;;8.23;;
72611;SDS011;60655;52.182;4.474;2024-02-16T09:40:12;30.73;;;9.00;;
72611;SDS011;60655;52.182;4.474;2024-02-16T09:42:14;30.95;;;8.40;;
72611;SDS011;60655;52.182;4.474;2024-02-16T09:44:15;31.88;;;8.70;;
72611;SDS011;60655;52.182;4.474;2024-02-16T09:46:17;28.27;;;7.88;;
72611;SDS011;60655;52.182;4.474;2024-02-16T09:48:19;26.48;;;8.18;;
72611;SDS011;60655;52.182;4.474;2024-02-16T09:50:22;29.52;;;8.68;;
72611;SDS011;60655;52.182;4.474;2024-02-16T09:52:24;32.28;;;7.80;;
72611;SDS011;60655;52.182;4.474;2024-02-16T09:54:25;31.55;;;8.25;;
72611;SDS011;60655;52.182;4.474;2024-02-16T09:56:26;28.80;;;8.75;;
72611;SDS011;60655;52.182;4.474;2024-02-16T09:58:27;25.95;;;7.82;;
72611;SDS011;60655;52.182;4.474;2024-02-16T10:00:29;21.98;;;7.57;;
72611;SDS011;60655;52.182;4.474;2024-02-16T10:02:42;23.23;;;7.35;;
72611;SDS011;60655;52.182;4.474;2024-02-16T10:04:44;22.20;;;7.10;;
72611;SDS011;60655;52.182;4.474;2024-02-16T10:06:45;27.73;;;7.63;;
72611;SDS011;60655;52.182;4.474;2024-02-16T10:08:52;21.63;;;7.60;;
72611;SDS011;60655;52.182;4.474;2024-02-16T10:11:02;20.08;;;6.68;;
72611;SDS011;60655;52.182;4.474;2024-02-16T10:13:05;22.08;;;6.93;;
72611;SDS011;60655;52.182;4.474;2024-02-16T10:15:06;24.00;;;7.40;;
72611;SDS011;60655;52.182;4.474;2024-02-16T10:17:08;19.80;;;5.95;;
72611;SDS011;60655;52.182;4.474;2024-02-16T10:19:09;15.88;;;6.53;;
72611;SDS011;60655;52.182;4.474;2024-02-16T10:21:11;20.02;;;7.22;;
72611;SDS011;60655;52.182;4.474;2024-02-16T10:23:12;23.63;;;7.30;;
72611;SDS011;60655;52.182;4.474;2024-02-16T10:25:13;17.60;;;7.60;;
72611;SDS011;60655;52.182;4.474;2024-02-16T10:27:15;21.85;;;7.70;;
72611;SDS011;60655;52.182;4.474;2024-02-16T10:29:17;19.20;;;6.80;;
72611;SDS011;60655;52.182;4.474;2024-02-16T10:31:22;21.80;;;7.85;;
72611;SDS011;60655;52.182;4.474;2024-02-16T10:33:28;16.52;;;6.32;;
72611;SDS011;60655;52.182;4.474;2024-02-16T10:35:32;25.48;;;6.93;;
72611;SDS011;60655;52.182;4.474;2024-02-16T10:37:37;17.92;;;6.95;;
72611;SDS011;60655;52.182;4.474;2024-02-16T10:39:38;20.75;;;7.22;;
72611;SDS011;60655;52.182;4.474;2024-02-16T10:41:41;20.58;;;6.82;;
72611;SDS011;60655;52.182;4.474;2024-02-16T10:43:43;20.58;;;7.00;;
72611;SDS011;60655;52.182;4.474;2024-02-16T10:45:46;23.33;;;7.15;;
72611;SDS011;60655;52.182;4.474;2024-02-16T10:47:49;17.98;;;7.18;;
72611;SDS011;60655;52.182;4.474;2024-02-16T10:49:50;23.92;;;7.07;;
72611;SDS011;60655;52.182;4.474;2024-02-16T10:51:54;20.92;;;7.10;;
72611;SDS011;60655;52.182;4.474;2024-02-16T10:53:57;25.23;;;6.53;;
72611;SDS011;60655;52.182;4.474;2024-02-16T10:56:01;19.98;;;6.65;;
72611;SDS011;60655;52.182;4.474;2024-02-16T10:58:02;18.15;;;7.00;;
72611;SDS011;60655;52.182;4.474;2024-02-16T11:00:07;16.88;;;6.80;;
72611;SDS011;60655;52.182;4.474;2024-02-16T11:02:11;16.55;;;6.20;;
72611;SDS011;60655;52.182;4.474;2024-02-16T11:04:16;20.73;;;5.32;;
72611;SDS011;60655;52.182;4.474;2024-02-16T11:06:20;16.20;;;5.00;;
72611;SDS011;60655;52.182;4.474;2024-02-16T11:08:23;16.50;;;5.53;;
72611;SDS011;60655;52.182;4.474;2024-02-16T11:10:27;13.35;;;5.30;;
72611;SDS011;60655;52.182;4.474;2024-02-16T11:12:32;15.75;;;4.82;;
72611;SDS011;60655;52.182;4.474;2024-02-16T11:14:36;12.65;;;4.95;;
72611;SDS011;60655;52.182;4.474;2024-02-16T11:16:47;15.05;;;5.85;;
72611;SDS011;60655;52.182;4.474;2024-02-16T11:18:47;12.75;;;4.75;;
72611;SDS011;60655;52.182;4.474;2024-02-16T11:20:49;18.50;;;5.05;;
72611;SDS011;60655;52.182;4.474;2024-02-16T11:22:51;16.70;;;4.43;;
72611;SDS011;60655;52.182;4.474;2024-02-16T11:24:53;17.13;;;5.38;;
72611;SDS011;60655;52.182;4.474;2024-02-16T11:26:54;14.68;;;5.43;;
72611;SDS011;60655;52.182;4.474;2024-02-16T11:28:55;15.15;;;5.03;;
72611;SDS011;60655;52.182;4.474;2024-02-16T11:30:56;15.18;;;4.75;;
72611;SDS011;60655;52.182;4.474;2024-02-16T11:32:57;12.27;;;4.65;;
72611;SDS011;60655;52.182;4.474;2024-02-16T11:35:04;18.27;;;4.57;;
72611;SDS011;60655;52.182;4.474;2024-02-16T11:37:06;13.77;;;4.70;;
72611;SDS011;60655;52.182;4.474;2024-02-16T11:39:13;17.45;;;4.50;;
72611;SDS011;60655;52.182;4.474;2024-02-16T11:41:17;16.42;;;4.35;;
72611;SDS011;60655;52.182;4.474;2024-02-16T11:43:21;20.08;;;4.50;;
72611;SDS011;60655;52.182;4.474;2024-02-16T11:45:23;11.43;;;4.50;;
72611;SDS011;60655;52.182;4.474;2024-02-16T11:47:24;13.38;;;3.83;;
72611;SDS011;60655;52.182;4.474;2024-02-16T11:49:27;15.68;;;3.97;;
72611;SDS011;60655;52.182;4.474;2024-02-16T11:51:29;11.20;;;3.45;;
72611;SDS011;60655;52.182;4.474;2024-02-16T11:53:30;11.90;;;3.75;;
72611;SDS011;60655;52.182;4.474;2024-02-16T11:55:33;18.38;;;3.90;;
72611;SDS011;60655;52.182;4.474;2024-02-16T11:57:35;14.55;;;4.00;;
72611;SDS011;60655;52.182;4.474;2024-02-16T11:59:37;16.15;;;4.38;;
72611;SDS011;60655;52.182;4.474;2024-02-16T12:01:49;14.15;;;4.32;;
72611;SDS011;60655;52.182;4.474;2024-02-16T12:03:52;16.33;;;4.07;;
72611;SDS011;60655;52.182;4.474;2024-02-16T12:05:53;13.18;;;4.97;;
72611;SDS011;60655;52.182;4.474;2024-02-16T12:07:57;16.40;;;4.50;;
72611;SDS011;60655;52.182;4.474;2024-02-16T12:09:58;16.23;;;3.97;;